createdAt,value
2022-12-31T00:01:14.021Z,102375.25
2022-12-31T00:03:41.462Z,102367.25
2022-12-31T00:06:17.331Z,102357.50
2022-12-31T00:08:44.833Z,102370.16
2022-12-31T00:11:11.585Z,102373.69
2022-12-31T00:13:38.575Z,102373.59
2022-12-31T00:16:14.655Z,102374.47
2022-12-31T00:18:44.856Z,102376.09
2022-12-31T00:21:14.262Z,102368.94
2022-12-31T00:23:41.114Z,102369.59
2022-12-31T00:26:13.567Z,102372.97
2022-12-31T00:28:41.162Z,102380.16
2022-12-31T00:31:21.254Z,102377.19
2022-12-31T00:33:47.980Z,102378.91
2022-12-31T00:36:23.675Z,102383.28
2022-12-31T00:38:51.780Z,102384.22
2022-12-31T00:41:19.224Z,102381.34
2022-12-31T00:43:45.945Z,102383.06
2022-12-31T00:46:13.134Z,102384.81
2022-12-31T00:48:39.905Z,102385.59
2022-12-31T00:51:08.834Z,102386.38
2022-12-31T00:53:35.570Z,102386.38
2022-12-31T00:56:07.918Z,102384.63
2022-12-31T00:58:35.350Z,102381.94
2022-12-31T01:01:17.148Z,102381.00
2022-12-31T01:03:44.112Z,102382.53
2022-12-31T01:06:11.165Z,102395.00
2022-12-31T01:08:37.769Z,102386.84
2022-12-31T01:11:22.188Z,102393.84
2022-12-31T01:14:01.697Z,102391.94
2022-12-31T01:16:31.857Z,102397.13
2022-12-31T01:18:59.993Z,102393.50
2022-12-31T01:21:27.326Z,102402.25
2022-12-31T01:23:54.074Z,102400.25
2022-12-31T01:26:20.742Z,102403.72
2022-12-31T01:28:47.633Z,102408.13
2022-12-31T01:31:17.096Z,102410.81
2022-12-31T01:33:43.911Z,102409.84
2022-12-31T01:36:21.724Z,102406.31
2022-12-31T01:38:51.917Z,102408.31
2022-12-31T01:41:21.638Z,102420.09
2022-12-31T01:43:55.769Z,102420.16
2022-12-31T01:46:34.337Z,102419.38
2022-12-31T01:49:04.923Z,102419.59
2022-12-31T01:51:33.510Z,102424.28
2022-12-31T01:54:00.746Z,102430.63
2022-12-31T01:56:27.321Z,102433.47
2022-12-31T01:58:55.953Z,102441.66
2022-12-31T02:01:31.228Z,102432.81
2022-12-31T02:03:58.370Z,102450.84
2022-12-31T02:06:29.890Z,102451.97
2022-12-31T02:08:58.001Z,102451.19
2022-12-31T02:11:29.925Z,102448.66
2022-12-31T02:13:58.804Z,102448.66
2022-12-31T02:16:35.640Z,102437.00
2022-12-31T02:19:04.858Z,102440.53
2022-12-31T02:22:25.654Z,102427.97
2022-12-31T02:25:20.254Z,102428.81
2022-12-31T02:28:00.906Z,102427.97
2022-12-31T02:30:30.944Z,102427.97
2022-12-31T02:33:13.977Z,102421.53
2022-12-31T02:35:54.441Z,102428.66
2022-12-31T02:38:26.575Z,102429.50
2022-12-31T02:40:54.375Z,102430.38
2022-12-31T02:43:20.885Z,102423.97
2022-12-31T02:45:50.945Z,102422.91
2022-12-31T02:48:17.446Z,102427.25
2022-12-31T02:51:02.445Z,102424.47
2022-12-31T02:53:56.326Z,102427.03
2022-12-31T02:56:55.870Z,102430.69
2022-12-31T02:59:52.976Z,102431.63
2022-12-31T03:02:21.892Z,102422.72
2022-12-31T03:04:53.780Z,102434.31
2022-12-31T03:07:26.801Z,102436.16
2022-12-31T03:09:53.669Z,102438.84
2022-12-31T03:12:40.753Z,102428.94
2022-12-31T03:15:19.971Z,102431.63
2022-12-31T03:17:53.802Z,102430.78
2022-12-31T03:20:40.571Z,102430.78
2022-12-31T03:23:09.968Z,102435.31
2022-12-31T03:25:37.940Z,102439.91
2022-12-31T03:28:17.231Z,102447.00
2022-12-31T03:30:46.679Z,102449.78
2022-12-31T03:33:13.785Z,102446.41
2022-12-31T03:35:42.237Z,102454.66
2022-12-31T03:38:09.174Z,102449.44
2022-12-31T03:40:47.627Z,102449.72
2022-12-31T03:43:14.801Z,102454.41
2022-12-31T03:45:41.792Z,102452.69
2022-12-31T03:48:09.597Z,102456.41
2022-12-31T03:50:36.650Z,102448.44
2022-12-31T03:53:03.232Z,102455.72
2022-12-31T03:55:29.744Z,102471.84
2022-12-31T03:57:56.390Z,102462.81
2022-12-31T04:00:23.112Z,102462.81
2022-12-31T04:02:50.796Z,102462.81
2022-12-31T04:05:18.677Z,102461.09
2022-12-31T04:07:45.587Z,102468.19
2022-12-31T04:10:13.985Z,102465.41
2022-12-31T04:12:40.538Z,102459.19
2022-12-31T04:15:08.053Z,102468.88
2022-12-31T04:17:34.584Z,102464.47
2022-12-31T04:20:01.169Z,102463.44
2022-12-31T04:22:27.702Z,102473.19
2022-12-31T04:24:54.177Z,102485.69
2022-12-31T04:27:20.657Z,102487.31
2022-12-31T04:29:47.283Z,102481.88
2022-12-31T04:32:13.860Z,102487.25
2022-12-31T04:34:40.376Z,102492.50
2022-12-31T04:37:06.892Z,102489.75
2022-12-31T04:39:33.414Z,102495.09
2022-12-31T04:41:59.942Z,102500.47
2022-12-31T04:44:26.453Z,102503.16
2022-12-31T04:46:53.027Z,102507.69
2022-12-31T04:49:19.627Z,102509.41
2022-12-31T04:51:46.182Z,102506.91
2022-12-31T04:54:12.705Z,102514.09
2022-12-31T04:56:39.283Z,102514.97
2022-12-31T04:59:07.253Z,102515.81
2022-12-31T05:01:33.835Z,102513.22
2022-12-31T05:04:00.416Z,102513.22
2022-12-31T05:06:27.145Z,102505.28
2022-12-31T05:08:53.723Z,102516.94
2022-12-31T05:11:20.395Z,102519.63
2022-12-31T05:13:46.930Z,102516.09
2022-12-31T05:16:13.560Z,102525.00
2022-12-31T05:18:40.561Z,102516.88
2022-12-31T05:21:07.144Z,102514.09
2022-12-31T05:23:33.822Z,102514.09
2022-12-31T05:26:00.472Z,102533.75
2022-12-31T05:28:27.093Z,102539.06
2022-12-31T05:30:53.801Z,102539.06
2022-12-31T05:33:20.703Z,102537.31
2022-12-31T05:35:47.319Z,102549.81
2022-12-31T05:38:14.052Z,102558.81
2022-12-31T05:40:40.704Z,102559.66
2022-12-31T05:43:07.614Z,102562.25
2022-12-31T05:45:34.212Z,102561.31
2022-12-31T05:48:00.914Z,102565.72
2022-12-31T05:50:27.496Z,102563.91
2022-12-31T05:52:54.098Z,102569.19
2022-12-31T05:55:20.621Z,102565.56
2022-12-31T05:57:47.183Z,102575.44
2022-12-31T06:00:14.564Z,102574.75
2022-12-31T06:02:41.364Z,102573.97
2022-12-31T06:05:08.345Z,102575.97
2022-12-31T06:07:34.908Z,102575.19
2022-12-31T06:10:01.417Z,102580.97
2022-12-31T06:12:27.918Z,102586.69
2022-12-31T06:14:54.450Z,102586.88
2022-12-31T06:17:22.412Z,102589.63
2022-12-31T06:19:48.998Z,102593.28
2022-12-31T06:22:15.567Z,102600.38
2022-12-31T06:24:42.477Z,102600.22
2022-12-31T06:27:09.098Z,102606.44
2022-12-31T06:29:35.709Z,102601.06
2022-12-31T06:32:02.221Z,102606.44
2022-12-31T06:34:28.701Z,102604.63
2022-12-31T06:36:55.287Z,102609.13
2022-12-31T06:39:21.803Z,102620.72
2022-12-31T06:41:48.312Z,102624.13
2022-12-31T06:44:15.028Z,102627.66
2022-12-31T06:46:41.986Z,102622.38
2022-12-31T06:49:08.642Z,102617.19
2022-12-31T06:51:35.309Z,102617.25
2022-12-31T06:54:01.961Z,102620.81
2022-12-31T06:56:33.829Z,102615.28
2022-12-31T06:59:02.853Z,102620.56
2022-12-31T07:01:58.028Z,102625.84
2022-12-31T07:04:45.930Z,102624.13
2022-12-31T07:07:22.173Z,102630.44
2022-12-31T07:10:01.156Z,102627.94
2022-12-31T07:12:39.938Z,102632.66
2022-12-31T07:15:45.990Z,102629.44
2022-12-31T07:18:33.524Z,102645.75
2022-12-31T07:21:00.488Z,102650.31
2022-12-31T07:23:27.256Z,102662.88
2022-12-31T07:26:40.237Z,102663.81
2022-12-31T07:29:26.055Z,102670.16
2022-12-31T07:32:04.435Z,102663.28
2022-12-31T07:35:00.247Z,102670.63
2022-12-31T07:37:49.419Z,102681.53
2022-12-31T07:40:44.740Z,102690.44
2022-12-31T07:43:29.790Z,102699.34
2022-12-31T07:46:07.448Z,102701.19
2022-12-31T07:48:34.762Z,102704.66
2022-12-31T07:51:01.604Z,102707.28
2022-12-31T07:53:28.491Z,102713.31
2022-12-31T07:55:58.323Z,102717.69
2022-12-31T07:58:40.523Z,102721.16
2022-12-31T08:01:11.338Z,102727.38
2022-12-31T08:03:55.328Z,102728.25
2022-12-31T08:06:36.584Z,102712.22
2022-12-31T08:09:13.069Z,102724.63
2022-12-31T08:11:52.377Z,102734.25
2022-12-31T08:14:19.753Z,102727.84
2022-12-31T08:16:46.775Z,102728.53
2022-12-31T08:19:20.113Z,102735.50
2022-12-31T08:22:09.568Z,102724.41
2022-12-31T08:25:14.454Z,102731.22
2022-12-31T08:28:04.808Z,102738.84
2022-12-31T08:31:00.471Z,102747.47
2022-12-31T08:33:47.599Z,102739.16
2022-12-31T08:36:37.941Z,102757.78
2022-12-31T08:39:21.732Z,102755.19
2022-12-31T08:41:49.980Z,102755.19
2022-12-31T08:44:24.871Z,102760.66
2022-12-31T08:47:09.649Z,102767.84
2022-12-31T08:49:36.409Z,102766.88
2022-12-31T08:52:03.460Z,102765.06
2022-12-31T08:54:30.422Z,102769.56
2022-12-31T08:57:09.455Z,102763.16
2022-12-31T08:59:52.572Z,102766.47
2022-12-31T09:02:39.347Z,102760.78
2022-12-31T09:05:29.814Z,102769.41
2022-12-31T09:08:21.435Z,102769.06
2022-12-31T09:10:53.531Z,102763.34
2022-12-31T09:13:44.660Z,102766.56
2022-12-31T09:16:16.960Z,102776.00
2022-12-31T09:18:44.956Z,102782.88
2022-12-31T09:21:14.297Z,102782.69
2022-12-31T09:23:41.472Z,102780.69
2022-12-31T09:26:41.197Z,102782.34
2022-12-31T09:29:38.836Z,102782.97
2022-12-31T09:32:20.478Z,102789.81
2022-12-31T09:34:55.453Z,102793.97
2022-12-31T09:37:38.024Z,102811.69
2022-12-31T09:40:23.056Z,102807.00
2022-12-31T09:43:08.028Z,102812.13
2022-12-31T09:45:40.603Z,102807.31
2022-12-31T09:48:25.748Z,102800.75
2022-12-31T09:51:25.570Z,102797.78
2022-12-31T09:54:19.812Z,102801.44
2022-12-31T09:56:58.874Z,102806.97
2022-12-31T09:59:33.713Z,102806.03
2022-12-31T10:02:11.901Z,102803.94
2022-12-31T10:04:57.365Z,102812.78
2022-12-31T10:07:50.509Z,102801.00
2022-12-31T10:10:38.793Z,102802.72
2022-12-31T10:13:14.828Z,102797.16
2022-12-31T10:15:53.977Z,102795.16
2022-12-31T10:18:57.644Z,102805.66
2022-12-31T10:21:58.052Z,102801.94
2022-12-31T10:24:49.449Z,102799.81
2022-12-31T10:27:37.251Z,102801.38
2022-12-31T10:30:13.128Z,102801.19
2022-12-31T10:33:07.968Z,102795.78
2022-12-31T10:35:58.296Z,102801.28
2022-12-31T10:38:55.632Z,102803.88
2022-12-31T10:41:24.816Z,102794.66
2022-12-31T10:44:03.901Z,102798.78
2022-12-31T10:47:07.859Z,102794.06
2022-12-31T10:49:54.503Z,102798.19
2022-12-31T10:52:41.927Z,102797.84
2022-12-31T10:55:27.095Z,102799.38
2022-12-31T10:58:15.125Z,102789.31
2022-12-31T11:01:12.195Z,102790.00
2022-12-31T11:04:09.894Z,102792.56
2022-12-31T11:06:58.063Z,102790.66
2022-12-31T11:09:49.314Z,102789.59
2022-12-31T11:12:34.588Z,102789.41
2022-12-31T11:15:16.398Z,102794.88
2022-12-31T11:18:12.501Z,102785.94
2022-12-31T11:21:00.229Z,102781.41
2022-12-31T11:23:38.722Z,102790.19
2022-12-31T11:26:41.307Z,102781.72
2022-12-31T11:29:23.430Z,102774.31
2022-12-31T11:32:04.380Z,102769.59
2022-12-31T11:34:47.939Z,102775.47
2022-12-31T11:37:17.578Z,102775.00
2022-12-31T11:40:01.551Z,102783.25
2022-12-31T11:42:37.157Z,102780.94
2022-12-31T11:45:22.857Z,102770.66
2022-12-31T11:51:16.134Z,102771.50
2022-12-31T11:54:01.354Z,102766.19
2022-12-31T11:56:34.412Z,102773.97
2022-12-31T11:59:04.859Z,102774.59
2022-12-31T12:01:53.708Z,102763.59
2022-12-31T12:04:20.267Z,102756.16
2022-12-31T12:06:47.070Z,102768.22
2022-12-31T12:09:16.874Z,102756.06
2022-12-31T12:11:43.475Z,102762.41
2022-12-31T12:14:20.550Z,102753.88
2022-12-31T12:16:47.226Z,102750.88
2022-12-31T12:19:18.285Z,102754.19
2022-12-31T12:21:48.924Z,102752.72
2022-12-31T12:24:26.468Z,102749.34
2022-12-31T12:26:53.171Z,102746.88
2022-12-31T12:29:32.270Z,102749.34
2022-12-31T12:32:12.401Z,102742.47
2022-12-31T12:34:44.539Z,102744.00
2022-12-31T12:37:26.298Z,102752.47
2022-12-31T12:39:56.711Z,102751.59
2022-12-31T12:42:23.679Z,102740.72
2022-12-31T12:45:01.448Z,102737.06
2022-12-31T12:47:28.309Z,102736.09
2022-12-31T12:49:55.325Z,102736.31
2022-12-31T12:52:37.602Z,102740.81
2022-12-31T12:55:27.654Z,102740.91
2022-12-31T12:57:57.312Z,102738.22
2022-12-31T13:00:29.885Z,102735.53
2022-12-31T13:03:27.538Z,102726.69
2022-12-31T13:06:06.330Z,102729.38
2022-12-31T13:08:43.512Z,102732.25
2022-12-31T13:11:29.497Z,102731.28
2022-12-31T13:14:18.513Z,102724.75
2022-12-31T13:17:25.979Z,102727.22
2022-12-31T13:20:25.691Z,102715.69
2022-12-31T13:22:55.673Z,102716.84
2022-12-31T13:25:38.545Z,102713.50
2022-12-31T13:28:08.091Z,102710.97
2022-12-31T13:30:46.004Z,102711.66
2022-12-31T13:33:37.717Z,102714.06
2022-12-31T13:36:15.508Z,102720.91
2022-12-31T13:38:46.380Z,102721.47
2022-12-31T13:41:24.290Z,102716.66
2022-12-31T13:44:16.448Z,102724.44
2022-12-31T13:46:49.038Z,102722.06
2022-12-31T13:49:31.567Z,102724.75
2022-12-31T13:52:29.143Z,102726.28
2022-12-31T13:55:13.981Z,102724.34
2022-12-31T13:58:07.412Z,102728.78
2022-12-31T14:00:41.344Z,102726.84
2022-12-31T14:03:19.603Z,102733.94
2022-12-31T14:06:02.468Z,102727.06
2022-12-31T14:08:29.228Z,102728.38
2022-12-31T14:11:04.938Z,102729.53
2022-12-31T14:13:43.199Z,102729.47
2022-12-31T14:16:24.591Z,102734.84
2022-12-31T14:19:02.947Z,102747.47
2022-12-31T14:21:29.411Z,102741.31
2022-12-31T14:24:27.618Z,102744.78
2022-12-31T14:26:58.012Z,102743.03
2022-12-31T14:29:35.428Z,102751.09
2022-12-31T14:32:01.998Z,102750.16
2022-12-31T14:35:07.755Z,102750.94
2022-12-31T14:37:58.118Z,102750.63
2022-12-31T14:40:46.334Z,102753.03
2022-12-31T14:43:32.026Z,102763.53
2022-12-31T14:46:14.089Z,102760.66
2022-12-31T14:48:45.274Z,102764.00
2022-12-31T14:51:12.404Z,102766.69
2022-12-31T14:53:39.054Z,102768.63
2022-12-31T14:56:24.706Z,102769.78
2022-12-31T14:59:01.984Z,102765.34
2022-12-31T15:01:29.151Z,102765.34
2022-12-31T15:03:58.156Z,102761.69
2022-12-31T15:06:24.710Z,102767.97
2022-12-31T15:09:15.386Z,102770.53
2022-12-31T15:11:47.757Z,102772.47
2022-12-31T15:14:17.192Z,102770.84
2022-12-31T15:17:12.864Z,102771.81
2022-12-31T15:20:04.172Z,102768.13
2022-12-31T15:22:40.026Z,102778.94
2022-12-31T15:25:30.188Z,102777.22
2022-12-31T15:28:01.302Z,102780.00
2022-12-31T15:30:48.537Z,102780.00
2022-12-31T15:33:39.276Z,102788.28
2022-12-31T15:36:21.096Z,102782.97
2022-12-31T15:38:48.124Z,102781.25
2022-12-31T15:41:36.596Z,102784.06
2022-12-31T15:44:14.933Z,102791.38
2022-12-31T15:46:42.818Z,102786.06
2022-12-31T15:49:18.208Z,102788.84
2022-12-31T15:51:49.447Z,102792.41
2022-12-31T15:54:36.513Z,102793.28
2022-12-31T15:57:09.279Z,102796.06
2022-12-31T15:59:38.211Z,102800.78
2022-12-31T16:02:04.864Z,102801.63
2022-12-31T16:04:35.013Z,102798.84
2022-12-31T16:07:02.703Z,102800.59
2022-12-31T16:09:31.695Z,102799.63
2022-12-31T16:11:59.199Z,102802.31
2022-12-31T16:14:42.455Z,102800.50
2022-12-31T16:17:28.020Z,102810.31
2022-12-31T16:19:55.394Z,102812.25
2022-12-31T16:22:39.379Z,102816.56
2022-12-31T16:27:54.264Z,102814.84
2022-12-31T16:30:23.528Z,102823.88
2022-12-31T16:32:50.791Z,102819.47
2022-12-31T16:35:24.642Z,102823.13
2022-12-31T16:38:14.299Z,102835.91
2022-12-31T16:40:43.245Z,102831.59
2022-12-31T16:43:27.936Z,102834.47
2022-12-31T16:46:16.794Z,102843.63
2022-12-31T16:48:48.994Z,102847.34
2022-12-31T16:51:21.949Z,102857.28
2022-12-31T16:53:49.142Z,102857.34
2022-12-31T16:56:24.132Z,102864.66
2022-12-31T16:58:56.178Z,102862.09
2022-12-31T17:01:28.802Z,102868.34
2022-12-31T17:03:58.824Z,102863.88
2022-12-31T17:06:27.120Z,102872.94
2022-12-31T17:08:54.913Z,102873.88
2022-12-31T17:11:31.329Z,102860.41
2022-12-31T17:14:07.780Z,102867.56
2022-12-31T17:16:35.772Z,102869.38
2022-12-31T17:19:02.612Z,102867.72
2022-12-31T17:21:31.463Z,102880.25
2022-12-31T17:24:01.950Z,102867.63
2022-12-31T17:26:31.213Z,102869.38
2022-12-31T17:28:58.801Z,102872.94
2022-12-31T17:31:37.205Z,102862.94
2022-12-31T17:34:12.798Z,102879.13
2022-12-31T17:36:54.624Z,102878.25
2022-12-31T17:39:22.851Z,102869.38
2022-12-31T17:41:51.922Z,102877.56
2022-12-31T17:44:21.950Z,102873.22
2022-12-31T17:46:49.835Z,102884.16
2022-12-31T17:49:16.909Z,102874.38
2022-12-31T17:51:47.511Z,102886.19
2022-12-31T17:54:15.587Z,102877.22
2022-12-31T17:56:42.265Z,102885.03
2022-12-31T17:59:08.881Z,102887.56
2022-12-31T18:01:35.624Z,102885.72
2022-12-31T18:04:02.818Z,102892.25
2022-12-31T18:06:29.344Z,102888.97
2022-12-31T18:08:57.393Z,102881.06
2022-12-31T18:11:24.348Z,102881.97
2022-12-31T18:13:50.956Z,102882.03
2022-12-31T18:16:17.569Z,102890.19
2022-12-31T18:18:45.476Z,102896.81
2022-12-31T18:21:30.050Z,102903.44
2022-12-31T18:26:23.589Z,102904.38
2022-12-31T18:28:50.737Z,102907.84
2022-12-31T18:31:19.563Z,102910.63
2022-12-31T18:33:47.134Z,102909.97
2022-12-31T18:36:15.768Z,102907.63
2022-12-31T18:38:42.409Z,102908.66
2022-12-31T18:41:22.475Z,102911.34
2022-12-31T18:43:49.491Z,102915.84
2022-12-31T18:46:18.311Z,102916.63
2022-12-31T18:48:45.098Z,102919.25
2022-12-31T18:51:29.286Z,102923.69
2022-12-31T18:53:58.334Z,102925.44
2022-12-31T18:56:25.324Z,102920.13
2022-12-31T18:58:52.215Z,102933.59
2022-12-31T19:01:27.069Z,102934.47
2022-12-31T19:03:55.497Z,102938.72
2022-12-31T19:06:22.130Z,102941.22
2022-12-31T19:08:48.766Z,102947.31
2022-12-31T19:11:15.838Z,102947.13
2022-12-31T19:13:42.688Z,102946.19
2022-12-31T19:16:09.908Z,102947.91
2022-12-31T19:18:36.480Z,102948.69
2022-12-31T19:21:03.415Z,102943.31
2022-12-31T19:23:29.919Z,102948.59
2022-12-31T19:25:56.400Z,102946.00
2022-12-31T19:28:25.089Z,102950.59
2022-12-31T19:30:52.069Z,102942.72
2022-12-31T19:33:18.827Z,102941.81
2022-12-31T19:35:45.671Z,102949.13
2022-12-31T19:38:20.650Z,102948.25
2022-12-31T19:40:47.747Z,102950.00
2022-12-31T19:43:15.827Z,102947.13
2022-12-31T19:45:43.224Z,102954.25
2022-12-31T19:48:16.732Z,102950.78
2022-12-31T19:50:45.733Z,102961.91
2022-12-31T19:53:15.073Z,102954.09
2022-12-31T19:55:42.475Z,102964.97
2022-12-31T19:58:15.400Z,102957.81
2022-12-31T20:00:41.949Z,102957.00
2022-12-31T20:03:10.699Z,102959.81
2022-12-31T20:05:37.318Z,102954.44
2022-12-31T20:08:04.002Z,102943.66
2022-12-31T20:10:30.633Z,102941.81
2022-12-31T20:12:57.238Z,102949.13
2022-12-31T20:15:23.726Z,102946.44
2022-12-31T20:17:50.300Z,102943.72
2022-12-31T20:20:16.902Z,102932.88
2022-12-31T20:22:43.423Z,102932.00
2022-12-31T20:25:10.147Z,102931.22
2022-12-31T20:27:36.730Z,102931.13
2022-12-31T20:30:03.799Z,102937.50
2022-12-31T20:32:32.941Z,102934.09
2022-12-31T20:34:59.420Z,102934.16
2022-12-31T20:37:25.952Z,102936.00
2022-12-31T20:39:52.620Z,102931.47
2022-12-31T20:42:19.838Z,102934.94
2022-12-31T20:44:46.350Z,102938.44
2022-12-31T20:47:12.961Z,102942.75
2022-12-31T20:50:09.913Z,102933.75
2022-12-31T20:52:26.037Z,102937.28
2022-12-31T20:54:52.564Z,102934.56
2022-12-31T20:57:19.056Z,102930.88
2022-12-31T20:59:45.644Z,102932.66
2022-12-31T21:02:29.520Z,102935.25
2022-12-31T21:05:02.215Z,102933.22
2022-12-31T21:07:28.984Z,102935.94
2022-12-31T21:09:55.481Z,102940.53
2022-12-31T21:12:40.658Z,102939.75
2022-12-31T21:15:07.813Z,102936.28
2022-12-31T21:17:34.342Z,102937.25
2022-12-31T21:20:00.914Z,102949.03
2022-12-31T21:22:27.442Z,102944.66
2022-12-31T21:24:54.028Z,102944.88
2022-12-31T21:27:20.626Z,102946.59
2022-12-31T21:30:17.241Z,102948.34
2022-12-31T21:32:33.663Z,102956.34
2022-12-31T21:35:40.323Z,102956.41
2022-12-31T21:37:59.286Z,102952.16
2022-12-31T21:40:27.965Z,102941.56
2022-12-31T21:42:54.671Z,102945.41
2022-12-31T21:45:21.666Z,102944.69
2022-12-31T21:48:07.997Z,102945.75
2022-12-31T21:50:34.859Z,102941.56
2022-12-31T21:53:01.708Z,102952.31
2022-12-31T21:55:46.982Z,102948.66
2022-12-31T21:58:26.001Z,102952.13
2022-12-31T22:01:12.959Z,102956.66
2022-12-31T22:03:39.845Z,102950.56
2022-12-31T22:06:13.100Z,102962.22
2022-12-31T22:08:44.925Z,102956.13
2022-12-31T22:11:12.405Z,102950.94
2022-12-31T22:13:39.321Z,102957.25
2022-12-31T22:16:06.752Z,102964.28
2022-12-31T22:18:40.691Z,102951.63
2022-12-31T22:21:21.283Z,102953.38
2022-12-31T22:23:49.652Z,102957.88
2022-12-31T22:26:17.890Z,102958.75
2022-12-31T22:28:45.205Z,102951.63
2022-12-31T22:31:20.772Z,102965.06
2022-12-31T22:33:47.635Z,102960.66
2022-12-31T22:36:16.420Z,102958.91
2022-12-31T22:38:43.694Z,102963.34
2022-12-31T22:41:15.163Z,102966.03
2022-12-31T22:43:44.022Z,102965.34
2022-12-31T22:46:28.898Z,102971.75
2022-12-31T22:48:57.929Z,102970.13
2022-12-31T22:51:24.424Z,102970.13
2022-12-31T22:53:51.077Z,102963.06
2022-12-31T22:56:18.995Z,102973.16
2022-12-31T22:58:46.191Z,102962.53
2022-12-31T23:01:19.111Z,102953.69
2022-12-31T23:03:47.325Z,102958.97
2022-12-31T23:06:14.149Z,102954.19
2022-12-31T23:08:40.774Z,102946.69
2022-12-31T23:11:09.677Z,102955.34
2022-12-31T23:13:57.765Z,102953.44
2022-12-31T23:16:45.413Z,102951.81
2022-12-31T23:19:30.632Z,102950.06
2022-12-31T23:22:15.678Z,102944.78
2022-12-31T23:24:42.309Z,102940.41
2022-12-31T23:27:09.823Z,102940.41
2022-12-31T23:29:46.248Z,102941.19
2022-12-31T23:32:15.870Z,102945.72
2022-12-31T23:34:43.702Z,102942.25
2022-12-31T23:37:10.779Z,102939.81
2022-12-31T23:39:37.356Z,102946.13
2022-12-31T23:42:04.070Z,102945.34
2022-12-31T23:44:30.581Z,102954.38
2022-12-31T23:46:57.210Z,102950.91
2022-12-31T23:49:23.833Z,102956.28
2022-12-31T23:51:50.345Z,102953.59
2022-12-31T23:54:17.866Z,102950.97
2022-12-31T23:56:44.620Z,102950.31
2022-12-31T23:59:11.733Z,102946.91
